• Join FlightAware (Why Join?)
  • Login
  • US Flag 
08:05AM EST


 

Airport Tracker/Info


-or-


 

Live Flight TrackerFlight Track Log ✈ ASQ6137 ✈ 01-May-2013 ✈ KORD - KROC

Flight Track Log - Related Links

Times and Time Zones

All times are in EDT time to prevent confusion due to time zone crossing. See the ASQ6137 flight status page for this flight to view local times or setup timezone preferences in your user account.

Time Position Orientation Groundspeed Altitude Reporting Facility
EDT Latitude Longitude Course Direction KTS MPH feet Rate Location/Type
10:20AM 41.9500 -87.9000 105° East 177 204 2,100  Level Chicago TRACON
10:21AM 41.9333 -87.8167 105° East 260 299 4,500 2,789 Climbing Chicago TRACON
10:22AM 41.9667 -87.7333 62° Northeast 286 329 7,400 3,050 Climbing Chicago TRACON
10:23AM 42.0167 -87.6333 56° Northeast 300 345 10,600 2,864 Climbing Chicago TRACON
10:24AM 42.0333 -87.5167 79° East 310 357 13,700 2,250 Climbing Chicago TRACON
10:25AM 42.0500 -87.4000 79° East 323 372 15,100 565 Climbing Chicago TRACON
10:26AM 42.0794 -87.2575 74° East 328 377 15,000 123 Descending Chicago Center
10:27AM 42.1033 -87.1164 77° East 325 374 15,400 823 Climbing Chicago Center
10:28AM 42.1153 -86.9794 83° East 370 426 16,700 1,645 Climbing Chicago Center
10:29AM 42.1197 -86.8364 88° East 383 441 18,800 2,323 Climbing Chicago Center
10:30AM 42.1258 -86.6842 87° East 376 433 21,500 2,419 Climbing Chicago Center
10:32AM 42.1311 -86.5444 87° East 375 432 23,800 2,177 Climbing Chicago Center
10:33AM 42.1353 -86.4044 88° East 375 432 26,000 2,129 Climbing Chicago Center
10:34AM 42.1397 -86.2678 87° East 368 423 28,200 1,452 Climbing Chicago Center
10:35AM 42.1433 -86.1300 88° East 368 423 29,000 387 Climbing Chicago Center
10:36AM 42.1428 -85.9547 90° East 416 479 29,000  Level Chicago Center
10:37AM 42.1411 -85.7878 91° East 443 510 29,000  Level Chicago Center
10:38AM 42.1403 -85.6183 90° East 454 522 29,000 432 Level Chicago Center
10:39AM 42.1378 -85.4456 91° East 461 531 29,900 1,161 Climbing Chicago Center
10:40AM 42.1358 -85.2444 91° East 451 519 31,400 1,223 Climbing Chicago Center
10:40AM 42.1381 -85.1481 88° East 456 525 32,000 950 Climbing Cleveland Center
10:41AM 42.1361 -84.9828 91° East 446 513 33,000 500 Climbing Cleveland Center
10:42AM 42.1361 -84.8175 90° East 446 513 33,000  Level Cleveland Center
10:43AM 42.1450 -84.6303 86° East 446 513 33,000  Level Cleveland Center
10:44AM 42.1611 -84.4631 83° East 440 506 33,000  Level Cleveland Center
10:45AM 42.1728 -84.3014 84° East 440 506 33,000  Level Cleveland Center
10:46AM 42.1883 -84.1369 83° East 440 506 33,000  Level Cleveland Center
10:47AM 42.2017 -83.9722 84° East 440 506 33,000  Level Cleveland Center
10:48AM 42.2147 -83.8103 84° East 440 506 33,000  Level Cleveland Center
10:49AM 42.2275 -83.6453 84° East 440 506 33,000  Level Cleveland Center
10:50AM 42.2400 -83.4889 84° East 446 513 33,000  Level Cleveland Center
10:51AM 42.2528 -83.3044 85° East 452 520 33,000  Level Cleveland Center
10:52AM 42.2669 -83.1450 83° East 458 527 33,000  Level Cleveland Center
10:53AM 42.2789 -82.9800 84° East 458 527 33,000  Level Cleveland Center
10:54AM 42.2906 -82.8119 85° East 458 527 33,000  Level Cleveland Center
10:55AM 42.3042 -82.6439 84° East 458 527 33,000 -50 Level Cleveland Center
10:56AM 42.3153 -82.4786 85° East 452 520 32,900 -1,000 Descending Cleveland Center
10:57AM 42.3264 -82.3075 85° East 452 520 31,000 -2,050 Descending Cleveland Center
10:58AM 42.3394 -82.1169 85° East 452 520 28,800 -1,916 Descending Cleveland Center
10:59AM 42.3497 -81.9625 85° East 452 520 27,200 -900 Descending Cleveland Center
11:00AM 42.3600 -81.7914 85° East 463 533 27,000 -99 Descending Cleveland Center
11:01AM 42.3700 -81.6203 85° East 457 526 27,000  Level Cleveland Center
11:02AM 42.3797 -81.4433 86° East 467 537 27,000  Level Cleveland Center
11:03AM 42.3914 -81.2719 85° East 461 531 27,000  Level Cleveland Center
11:04AM 42.4028 -81.0808 85° East 461 531 27,000  Level Cleveland Center
11:05AM 42.4119 -80.9039 86° East 461 531 27,000 -750 Level Cleveland Center
11:06AM 42.4225 -80.7322 85° East 461 531 25,500 -1,750 Descending Cleveland Center
11:07AM 42.4311 -80.5550 86° East 461 531 23,500 -2,000 Descending Cleveland Center
11:08AM 42.4414 -80.3947 85° East 450 518 21,500 -1,983 Descending Cleveland Center
11:09AM 42.4472 -80.2369 87° East 422 486 19,500 -1,261 Descending Cleveland Center
11:10AM 42.4550 -80.0906 86° East 399 459 19,000 -250 Descending Cleveland Center
11:11AM 42.4625 -79.9414 86° East 386 444 19,000  Level Cleveland Center
11:12AM 42.4719 -79.7867 85° East 398 458 19,000  Level Cleveland Center
11:13AM 42.4833 -79.6289 84° East 409 471 19,000  Level Cleveland Center
11:14AM 42.5383 -79.4928 61° Northeast 400 460 19,000  Level Cleveland Center
11:15AM 42.5997 -79.3619 57° Northeast 400 460 19,000 -200 Level Cleveland Center
11:16AM 42.6628 -79.2308 57° Northeast 407 468 18,600 -756 Descending Cleveland Center
11:17AM 42.7175 -79.1081 59° Northeast 399 459 17,500 -1,550 Descending Cleveland Center
11:18AM 42.7764 -78.9822 57° Northeast 389 448 15,500 -2,000 Descending Cleveland Center
11:19AM 42.8308 -78.8619 58° Northeast 389 448 13,500 -1,700 Descending Cleveland Center
11:20AM 42.8853 -78.7414 58° Northeast 384 442 12,100 -1,150 Descending Cleveland Center
11:21AM 42.9353 -78.6181 61° Northeast 374 430 11,200 -450 Descending Cleveland Center
11:22AM 42.9600 -78.4839 76° East 357 411 11,200  Level Cleveland Center
11:23AM 42.9717 -78.4297 74° East 372 428 11,200 -200 Level Cleveland Center
11:23AM 42.9869 -78.3553 74° East 357 411 11,000 -556 Descending Cleveland Center
11:24AM 42.9944 -78.3153 76° East 312 359 10,700 -1,446 Descending Cleveland Center
11:25AM 43.0133 -78.2122 76° East 274 315 9,000 -1,770 Descending Cleveland Center
11:26AM 43.0383 -78.1147 71° East 272 313 7,100 -1,417 Descending Cleveland Center
11:27AM 43.0842 -78.0164 57° Northeast 265 305 6,000 -945 Descending Cleveland Center
11:28AM 43.1261 -77.9350 55° Northeast 263 303 5,100 -942 Descending Cleveland Center
11:29AM 43.1656 -77.8478 58° Northeast 261 300 4,100 -942 Descending Cleveland Center
11:30AM 43.1928 -77.7611 67° East 250 288 3,200 -984 Descending Cleveland Center
11:31AM 43.1847 -77.6847 98° East 173 199 2,100 -942 Descending Cleveland Center
11:32AM 43.1486 -77.6608 154° Southeast 135 155 1,300 -800 Descending Cleveland Center